sensor_id;sensor_type;location;lat;lon;timestamp;P1;durP1;ratioP1;P2;durP2;ratioP2
24147;SDS011;12309;51.450;-2.624;2024-02-26T00:01:38;4.47;;;2.40;;
24147;SDS011;12309;51.450;-2.624;2024-02-26T00:04:04;4.93;;;2.20;;
24147;SDS011;12309;51.450;-2.624;2024-02-26T00:06:30;3.33;;;2.40;;
24147;SDS011;12309;51.450;-2.624;2024-02-26T00:08:56;3.53;;;2.20;;
24147;SDS011;12309;51.450;-2.624;2024-02-26T00:11:22;6.00;;;2.33;;
24147;SDS011;12309;51.450;-2.624;2024-02-26T00:13:47;4.90;;;2.30;;
24147;SDS011;12309;51.450;-2.624;2024-02-26T00:16:13;4.37;;;2.33;;
24147;SDS011;12309;51.450;-2.624;2024-02-26T00:18:39;4.50;;;2.10;;
24147;SDS011;12309;51.450;-2.624;2024-02-26T00:21:07;5.80;;;2.50;;
24147;SDS011;12309;51.450;-2.624;2024-02-26T00:23:32;4.10;;;2.47;;
24147;SDS011;12309;51.450;-2.624;2024-02-26T00:25:58;5.43;;;2.40;;
24147;SDS011;12309;51.450;-2.624;2024-02-26T00:28:24;2.97;;;2.10;;
24147;SDS011;12309;51.450;-2.624;2024-02-26T00:30:52;4.47;;;2.13;;
24147;SDS011;12309;51.450;-2.624;2024-02-26T00:33:20;5.50;;;2.30;;
24147;SDS011;12309;51.450;-2.624;2024-02-26T00:35:47;2.77;;;2.20;;
24147;SDS011;12309;51.450;-2.624;2024-02-26T00:38:13;6.23;;;2.50;;
24147;SDS011;12309;51.450;-2.624;2024-02-26T00:40:39;6.13;;;2.10;;
24147;SDS011;12309;51.450;-2.624;2024-02-26T00:43:08;5.60;;;2.00;;
24147;SDS011;12309;51.450;-2.624;2024-02-26T00:45:33;2.60;;;1.90;;
24147;SDS011;12309;51.450;-2.624;2024-02-26T00:48:00;5.03;;;2.10;;
24147;SDS011;12309;51.450;-2.624;2024-02-26T00:50:31;4.53;;;2.10;;
24147;SDS011;12309;51.450;-2.624;2024-02-26T00:52:57;6.23;;;2.10;;
24147;SDS011;12309;51.450;-2.624;2024-02-26T00:55:23;5.33;;;2.30;;
24147;SDS011;12309;51.450;-2.624;2024-02-26T00:57:49;3.33;;;2.10;;
24147;SDS011;12309;51.450;-2.624;2024-02-26T01:02:43;4.77;;;1.90;;
24147;SDS011;12309;51.450;-2.624;2024-02-26T01:05:14;3.47;;;2.10;;
24147;SDS011;12309;51.450;-2.624;2024-02-26T01:07:41;4.90;;;2.37;;
24147;SDS011;12309;51.450;-2.624;2024-02-26T01:10:07;6.30;;;2.13;;
24147;SDS011;12309;51.450;-2.624;2024-02-26T01:12:35;2.90;;;1.90;;
24147;SDS011;12309;51.450;-2.624;2024-02-26T01:15:01;2.67;;;1.80;;
24147;SDS011;12309;51.450;-2.624;2024-02-26T01:17:40;6.30;;;2.17;;
24147;SDS011;12309;51.450;-2.624;2024-02-26T01:20:06;5.13;;;2.20;;
24147;SDS011;12309;51.450;-2.624;2024-02-26T01:22:34;2.17;;;1.70;;
24147;SDS011;12309;51.450;-2.624;2024-02-26T01:25:00;7.53;;;2.13;;
24147;SDS011;12309;51.450;-2.624;2024-02-26T01:27:25;7.10;;;2.33;;
24147;SDS011;12309;51.450;-2.624;2024-02-26T01:29:53;3.77;;;2.10;;
24147;SDS011;12309;51.450;-2.624;2024-02-26T01:32:18;5.37;;;2.67;;
24147;SDS011;12309;51.450;-2.624;2024-02-26T01:34:46;5.27;;;2.47;;
24147;SDS011;12309;51.450;-2.624;2024-02-26T01:37:12;4.33;;;2.10;;
24147;SDS011;12309;51.450;-2.624;2024-02-26T01:39:38;4.57;;;2.73;;
24147;SDS011;12309;51.450;-2.624;2024-02-26T01:42:06;4.03;;;2.13;;
24147;SDS011;12309;51.450;-2.624;2024-02-26T01:44:32;2.50;;;1.97;;
24147;SDS011;12309;51.450;-2.624;2024-02-26T01:46:58;4.33;;;1.80;;
24147;SDS011;12309;51.450;-2.624;2024-02-26T01:49:26;6.80;;;2.03;;
24147;SDS011;12309;51.450;-2.624;2024-02-26T01:51:52;2.37;;;1.80;;
24147;SDS011;12309;51.450;-2.624;2024-02-26T01:54:18;3.60;;;1.83;;
24147;SDS011;12309;51.450;-2.624;2024-02-26T01:56:44;2.50;;;1.80;;
24147;SDS011;12309;51.450;-2.624;2024-02-26T01:59:10;3.37;;;1.73;;
24147;SDS011;12309;51.450;-2.624;2024-02-26T02:01:36;3.13;;;1.83;;
24147;SDS011;12309;51.450;-2.624;2024-02-26T02:04:06;4.60;;;1.77;;
24147;SDS011;12309;51.450;-2.624;2024-02-26T02:06:32;3.07;;;1.80;;
24147;SDS011;12309;51.450;-2.624;2024-02-26T02:08:58;3.37;;;1.83;;
24147;SDS011;12309;51.450;-2.624;2024-02-26T02:11:25;4.70;;;2.10;;
24147;SDS011;12309;51.450;-2.624;2024-02-26T02:13:51;3.67;;;2.03;;
24147;SDS011;12309;51.450;-2.624;2024-02-26T02:16:18;3.10;;;1.90;;
24147;SDS011;12309;51.450;-2.624;2024-02-26T02:18:44;3.47;;;2.10;;
24147;SDS011;12309;51.450;-2.624;2024-02-26T02:21:09;7.37;;;2.30;;
24147;SDS011;12309;51.450;-2.624;2024-02-26T02:23:35;3.57;;;2.20;;
24147;SDS011;12309;51.450;-2.624;2024-02-26T02:26:02;5.73;;;2.30;;
24147;SDS011;12309;51.450;-2.624;2024-02-26T02:28:28;5.77;;;2.30;;
24147;SDS011;12309;51.450;-2.624;2024-02-26T02:30:54;3.30;;;2.43;;
24147;SDS011;12309;51.450;-2.624;2024-02-26T02:33:20;6.03;;;2.47;;
24147;SDS011;12309;51.450;-2.624;2024-02-26T02:35:48;3.93;;;2.40;;
24147;SDS011;12309;51.450;-2.624;2024-02-26T02:38:15;4.00;;;2.27;;
24147;SDS011;12309;51.450;-2.624;2024-02-26T02:40:41;6.73;;;2.20;;
24147;SDS011;12309;51.450;-2.624;2024-02-26T02:43:07;6.10;;;2.40;;
24147;SDS011;12309;51.450;-2.624;2024-02-26T02:45:34;5.37;;;2.17;;
24147;SDS011;12309;51.450;-2.624;2024-02-26T02:48:00;5.17;;;2.23;;
24147;SDS011;12309;51.450;-2.624;2024-02-26T02:50:26;4.90;;;2.30;;
24147;SDS011;12309;51.450;-2.624;2024-02-26T02:52:53;4.93;;;2.37;;
24147;SDS011;12309;51.450;-2.624;2024-02-26T02:55:19;5.67;;;2.00;;
24147;SDS011;12309;51.450;-2.624;2024-02-26T02:57:45;6.47;;;2.07;;
24147;SDS011;12309;51.450;-2.624;2024-02-26T03:00:11;4.27;;;2.00;;
24147;SDS011;12309;51.450;-2.624;2024-02-26T03:02:37;5.80;;;2.03;;
24147;SDS011;12309;51.450;-2.624;2024-02-26T03:05:04;8.50;;;2.00;;
24147;SDS011;12309;51.450;-2.624;2024-02-26T03:07:30;2.90;;;1.90;;
24147;SDS011;12309;51.450;-2.624;2024-02-26T03:09:56;5.27;;;2.00;;
24147;SDS011;12309;51.450;-2.624;2024-02-26T03:12:22;3.43;;;1.77;;
24147;SDS011;12309;51.450;-2.624;2024-02-26T03:14:48;5.10;;;1.90;;
24147;SDS011;12309;51.450;-2.624;2024-02-26T03:17:14;5.90;;;2.37;;
24147;SDS011;12309;51.450;-2.624;2024-02-26T03:19:40;2.17;;;1.70;;
24147;SDS011;12309;51.450;-2.624;2024-02-26T03:22:06;4.10;;;1.63;;
24147;SDS011;12309;51.450;-2.624;2024-02-26T03:24:33;5.73;;;2.00;;
24147;SDS011;12309;51.450;-2.624;2024-02-26T03:26:59;3.87;;;1.90;;
24147;SDS011;12309;51.450;-2.624;2024-02-26T03:29:25;2.70;;;1.50;;
24147;SDS011;12309;51.450;-2.624;2024-02-26T03:31:50;4.53;;;1.87;;
24147;SDS011;12309;51.450;-2.624;2024-02-26T03:34:16;4.33;;;1.90;;
24147;SDS011;12309;51.450;-2.624;2024-02-26T03:36:44;6.50;;;2.07;;
24147;SDS011;12309;51.450;-2.624;2024-02-26T03:39:10;6.07;;;1.57;;
24147;SDS011;12309;51.450;-2.624;2024-02-26T03:41:37;2.97;;;1.60;;
24147;SDS011;12309;51.450;-2.624;2024-02-26T03:44:03;6.17;;;1.63;;
24147;SDS011;12309;51.450;-2.624;2024-02-26T03:46:29;3.83;;;1.27;;
24147;SDS011;12309;51.450;-2.624;2024-02-26T03:48:55;7.17;;;1.40;;
24147;SDS011;12309;51.450;-2.624;2024-02-26T03:51:21;3.87;;;1.60;;
24147;SDS011;12309;51.450;-2.624;2024-02-26T03:53:47;3.47;;;1.70;;
24147;SDS011;12309;51.450;-2.624;2024-02-26T03:56:13;5.13;;;1.33;;
24147;SDS011;12309;51.450;-2.624;2024-02-26T03:58:39;4.20;;;1.60;;
24147;SDS011;12309;51.450;-2.624;2024-02-26T04:01:07;2.20;;;1.20;;
24147;SDS011;12309;51.450;-2.624;2024-02-26T04:03:33;1.73;;;1.13;;
24147;SDS011;12309;51.450;-2.624;2024-02-26T04:05:59;4.57;;;1.60;;
24147;SDS011;12309;51.450;-2.624;2024-02-26T04:08:26;4.43;;;1.50;;
24147;SDS011;12309;51.450;-2.624;2024-02-26T04:10:52;3.30;;;1.80;;
24147;SDS011;12309;51.450;-2.624;2024-02-26T04:13:18;6.07;;;2.00;;
24147;SDS011;12309;51.450;-2.624;2024-02-26T04:15:44;7.47;;;1.90;;
24147;SDS011;12309;51.450;-2.624;2024-02-26T04:18:11;6.53;;;2.23;;
24147;SDS011;12309;51.450;-2.624;2024-02-26T04:20:37;4.90;;;2.30;;
24147;SDS011;12309;51.450;-2.624;2024-02-26T04:23:03;5.70;;;2.13;;
24147;SDS011;12309;51.450;-2.624;2024-02-26T04:25:29;5.10;;;1.97;;
24147;SDS011;12309;51.450;-2.624;2024-02-26T04:27:55;5.77;;;2.07;;
24147;SDS011;12309;51.450;-2.624;2024-02-26T04:30:21;5.27;;;2.30;;
24147;SDS011;12309;51.450;-2.624;2024-02-26T04:32:47;4.23;;;2.43;;
24147;SDS011;12309;51.450;-2.624;2024-02-26T04:35:13;3.67;;;2.13;;
24147;SDS011;12309;51.450;-2.624;2024-02-26T04:37:39;5.17;;;1.93;;
24147;SDS011;12309;51.450;-2.624;2024-02-26T04:40:05;7.30;;;2.70;;
24147;SDS011;12309;51.450;-2.624;2024-02-26T04:42:31;5.80;;;2.67;;
24147;SDS011;12309;51.450;-2.624;2024-02-26T04:44:57;6.13;;;2.37;;
24147;SDS011;12309;51.450;-2.624;2024-02-26T04:47:23;5.43;;;2.13;;
24147;SDS011;12309;51.450;-2.624;2024-02-26T04:49:50;7.20;;;2.80;;
24147;SDS011;12309;51.450;-2.624;2024-02-26T04:52:16;5.30;;;2.80;;
24147;SDS011;12309;51.450;-2.624;2024-02-26T04:54:42;3.80;;;2.43;;
24147;SDS011;12309;51.450;-2.624;2024-02-26T04:57:08;5.27;;;2.70;;
24147;SDS011;12309;51.450;-2.624;2024-02-26T04:59:34;9.20;;;2.47;;
24147;SDS011;12309;51.450;-2.624;2024-02-26T05:02:00;5.70;;;2.70;;
24147;SDS011;12309;51.450;-2.624;2024-02-26T05:04:26;7.77;;;2.97;;
24147;SDS011;12309;51.450;-2.624;2024-02-26T05:06:52;5.50;;;2.47;;
24147;SDS011;12309;51.450;-2.624;2024-02-26T05:09:18;9.47;;;2.93;;
24147;SDS011;12309;51.450;-2.624;2024-02-26T05:11:45;3.43;;;2.40;;
24147;SDS011;12309;51.450;-2.624;2024-02-26T05:14:11;6.97;;;2.40;;
24147;SDS011;12309;51.450;-2.624;2024-02-26T05:16:38;3.83;;;2.17;;
24147;SDS011;12309;51.450;-2.624;2024-02-26T05:19:04;6.10;;;2.40;;
24147;SDS011;12309;51.450;-2.624;2024-02-26T05:21:30;3.90;;;2.07;;
24147;SDS011;12309;51.450;-2.624;2024-02-26T05:23:58;8.00;;;2.20;;
24147;SDS011;12309;51.450;-2.624;2024-02-26T05:26:24;2.20;;;1.73;;
24147;SDS011;12309;51.450;-2.624;2024-02-26T05:28:50;5.33;;;2.30;;
24147;SDS011;12309;51.450;-2.624;2024-02-26T05:31:16;6.57;;;2.00;;
24147;SDS011;12309;51.450;-2.624;2024-02-26T05:33:43;4.00;;;2.00;;
24147;SDS011;12309;51.450;-2.624;2024-02-26T05:36:09;4.20;;;1.80;;
24147;SDS011;12309;51.450;-2.624;2024-02-26T05:38:35;7.97;;;2.10;;
24147;SDS011;12309;51.450;-2.624;2024-02-26T05:41:01;6.17;;;1.93;;
24147;SDS011;12309;51.450;-2.624;2024-02-26T05:43:29;4.63;;;2.20;;
24147;SDS011;12309;51.450;-2.624;2024-02-26T05:45:56;5.40;;;2.10;;
24147;SDS011;12309;51.450;-2.624;2024-02-26T05:48:22;4.07;;;2.10;;
24147;SDS011;12309;51.450;-2.624;2024-02-26T05:50:48;4.90;;;2.43;;
24147;SDS011;12309;51.450;-2.624;2024-02-26T05:53:14;7.30;;;2.20;;
24147;SDS011;12309;51.450;-2.624;2024-02-26T05:55:40;3.57;;;2.00;;
24147;SDS011;12309;51.450;-2.624;2024-02-26T05:58:06;4.07;;;1.90;;
24147;SDS011;12309;51.450;-2.624;2024-02-26T06:00:32;4.03;;;1.70;;
24147;SDS011;12309;51.450;-2.624;2024-02-26T06:02:58;3.83;;;2.00;;
24147;SDS011;12309;51.450;-2.624;2024-02-26T06:05:24;5.10;;;2.03;;
24147;SDS011;12309;51.450;-2.624;2024-02-26T06:07:50;2.33;;;1.70;;
24147;SDS011;12309;51.450;-2.624;2024-02-26T06:10:15;2.73;;;1.57;;
24147;SDS011;12309;51.450;-2.624;2024-02-26T06:12:41;7.57;;;1.90;;
24147;SDS011;12309;51.450;-2.624;2024-02-26T06:15:07;5.27;;;1.80;;
24147;SDS011;12309;51.450;-2.624;2024-02-26T06:17:34;4.90;;;1.90;;
24147;SDS011;12309;51.450;-2.624;2024-02-26T06:20:00;5.03;;;1.67;;
24147;SDS011;12309;51.450;-2.624;2024-02-26T06:22:26;2.80;;;1.40;;
24147;SDS011;12309;51.450;-2.624;2024-02-26T06:24:52;9.03;;;1.60;;
24147;SDS011;12309;51.450;-2.624;2024-02-26T06:27:18;6.97;;;1.33;;
24147;SDS011;12309;51.450;-2.624;2024-02-26T06:29:46;4.57;;;1.53;;
24147;SDS011;12309;51.450;-2.624;2024-02-26T06:32:12;4.20;;;1.57;;
24147;SDS011;12309;51.450;-2.624;2024-02-26T06:34:38;3.80;;;1.37;;
24147;SDS011;12309;51.450;-2.624;2024-02-26T06:37:06;5.17;;;1.53;;
24147;SDS011;12309;51.450;-2.624;2024-02-26T06:39:32;5.10;;;1.57;;
24147;SDS011;12309;51.450;-2.624;2024-02-26T06:41:58;5.40;;;1.43;;
24147;SDS011;12309;51.450;-2.624;2024-02-26T06:44:27;4.20;;;1.50;;
24147;SDS011;12309;51.450;-2.624;2024-02-26T06:46:59;3.40;;;1.27;;
24147;SDS011;12309;51.450;-2.624;2024-02-26T06:49:25;3.20;;;1.23;;
24147;SDS011;12309;51.450;-2.624;2024-02-26T06:51:51;4.87;;;1.40;;
24147;SDS011;12309;51.450;-2.624;2024-02-26T06:54:17;2.93;;;1.43;;
24147;SDS011;12309;51.450;-2.624;2024-02-26T06:56:43;3.70;;;1.37;;
24147;SDS011;12309;51.450;-2.624;2024-02-26T06:59:09;5.20;;;1.30;;
24147;SDS011;12309;51.450;-2.624;2024-02-26T07:01:35;5.00;;;1.57;;
24147;SDS011;12309;51.450;-2.624;2024-02-26T07:04:01;5.07;;;1.63;;
24147;SDS011;12309;51.450;-2.624;2024-02-26T07:06:27;3.63;;;1.37;;
24147;SDS011;12309;51.450;-2.624;2024-02-26T07:08:53;3.00;;;1.60;;
24147;SDS011;12309;51.450;-2.624;2024-02-26T07:11:19;3.07;;;1.37;;
24147;SDS011;12309;51.450;-2.624;2024-02-26T07:13:45;4.30;;;1.30;;
24147;SDS011;12309;51.450;-2.624;2024-02-26T07:16:11;3.80;;;1.37;;
24147;SDS011;12309;51.450;-2.624;2024-02-26T07:18:40;3.37;;;1.30;;
24147;SDS011;12309;51.450;-2.624;2024-02-26T07:21:08;4.33;;;1.43;;
24147;SDS011;12309;51.450;-2.624;2024-02-26T07:23:34;3.10;;;1.60;;
24147;SDS011;12309;51.450;-2.624;2024-02-26T07:26:00;4.83;;;1.60;;
24147;SDS011;12309;51.450;-2.624;2024-02-26T07:28:30;4.83;;;1.47;;
24147;SDS011;12309;51.450;-2.624;2024-02-26T07:31:17;3.43;;;1.30;;
24147;SDS011;12309;51.450;-2.624;2024-02-26T07:33:43;2.60;;;1.30;;
24147;SDS011;12309;51.450;-2.624;2024-02-26T07:36:09;6.17;;;1.57;;
24147;SDS011;12309;51.450;-2.624;2024-02-26T07:38:34;5.50;;;1.47;;
24147;SDS011;12309;51.450;-2.624;2024-02-26T07:41:04;3.90;;;1.43;;
24147;SDS011;12309;51.450;-2.624;2024-02-26T07:43:30;10.23;;;1.73;;
24147;SDS011;12309;51.450;-2.624;2024-02-26T07:45:57;5.87;;;1.80;;
24147;SDS011;12309;51.450;-2.624;2024-02-26T07:48:22;5.40;;;1.40;;
24147;SDS011;12309;51.450;-2.624;2024-02-26T07:50:49;3.03;;;1.10;;
24147;SDS011;12309;51.450;-2.624;2024-02-26T07:53:15;5.03;;;1.23;;
24147;SDS011;12309;51.450;-2.624;2024-02-26T07:55:41;4.00;;;1.40;;
24147;SDS011;12309;51.450;-2.624;2024-02-26T07:58:07;7.13;;;1.50;;
24147;SDS011;12309;51.450;-2.624;2024-02-26T08:00:33;3.97;;;1.43;;
24147;SDS011;12309;51.450;-2.624;2024-02-26T08:02:59;4.33;;;1.70;;
24147;SDS011;12309;51.450;-2.624;2024-02-26T08:05:25;9.57;;;1.57;;
24147;SDS011;12309;51.450;-2.624;2024-02-26T08:07:51;2.97;;;1.30;;
24147;SDS011;12309;51.450;-2.624;2024-02-26T08:10:17;5.93;;;1.33;;
24147;SDS011;12309;51.450;-2.624;2024-02-26T08:12:43;3.93;;;1.10;;
24147;SDS011;12309;51.450;-2.624;2024-02-26T08:15:10;3.47;;;1.43;;
24147;SDS011;12309;51.450;-2.624;2024-02-26T08:17:36;3.97;;;1.33;;
24147;SDS011;12309;51.450;-2.624;2024-02-26T08:20:03;4.93;;;1.57;;
24147;SDS011;12309;51.450;-2.624;2024-02-26T08:22:29;6.37;;;1.40;;
24147;SDS011;12309;51.450;-2.624;2024-02-26T08:24:55;5.20;;;1.50;;
24147;SDS011;12309;51.450;-2.624;2024-02-26T08:27:21;4.20;;;1.43;;
24147;SDS011;12309;51.450;-2.624;2024-02-26T08:29:48;5.00;;;1.30;;
24147;SDS011;12309;51.450;-2.624;2024-02-26T08:32:13;3.33;;;1.50;;
24147;SDS011;12309;51.450;-2.624;2024-02-26T08:34:39;7.37;;;1.60;;
24147;SDS011;12309;51.450;-2.624;2024-02-26T08:37:06;5.77;;;1.47;;
24147;SDS011;12309;51.450;-2.624;2024-02-26T08:39:32;4.70;;;1.50;;
24147;SDS011;12309;51.450;-2.624;2024-02-26T08:41:58;5.83;;;1.77;;
24147;SDS011;12309;51.450;-2.624;2024-02-26T08:44:25;3.60;;;1.60;;
24147;SDS011;12309;51.450;-2.624;2024-02-26T08:46:51;2.63;;;1.30;;
24147;SDS011;12309;51.450;-2.624;2024-02-26T08:49:17;3.90;;;1.40;;
24147;SDS011;12309;51.450;-2.624;2024-02-26T08:51:43;5.73;;;1.17;;
24147;SDS011;12309;51.450;-2.624;2024-02-26T08:54:10;4.87;;;1.57;;
24147;SDS011;12309;51.450;-2.624;2024-02-26T08:56:37;7.47;;;1.87;;
24147;SDS011;12309;51.450;-2.624;2024-02-26T08:59:03;4.43;;;1.20;;
24147;SDS011;12309;51.450;-2.624;2024-02-26T09:01:30;11.57;;;1.60;;
24147;SDS011;12309;51.450;-2.624;2024-02-26T09:03:57;3.53;;;1.20;;
24147;SDS011;12309;51.450;-2.624;2024-02-26T09:06:23;3.17;;;1.40;;
24147;SDS011;12309;51.450;-2.624;2024-02-26T09:08:48;2.63;;;1.30;;
24147;SDS011;12309;51.450;-2.624;2024-02-26T09:11:14;4.93;;;1.50;;
24147;SDS011;12309;51.450;-2.624;2024-02-26T09:13:40;3.77;;;1.27;;
24147;SDS011;12309;51.450;-2.624;2024-02-26T09:16:07;5.23;;;1.27;;
24147;SDS011;12309;51.450;-2.624;2024-02-26T09:18:33;4.50;;;1.57;;
24147;SDS011;12309;51.450;-2.624;2024-02-26T09:20:59;3.47;;;1.40;;
24147;SDS011;12309;51.450;-2.624;2024-02-26T09:23:25;4.83;;;1.57;;
24147;SDS011;12309;51.450;-2.624;2024-02-26T09:25:51;4.87;;;1.53;;
24147;SDS011;12309;51.450;-2.624;2024-02-26T09:28:17;5.17;;;1.50;;
24147;SDS011;12309;51.450;-2.624;2024-02-26T09:30:43;8.13;;;1.80;;
24147;SDS011;12309;51.450;-2.624;2024-02-26T09:33:09;3.73;;;1.40;;
24147;SDS011;12309;51.450;-2.624;2024-02-26T09:35:36;4.93;;;1.37;;
24147;SDS011;12309;51.450;-2.624;2024-02-26T09:38:02;3.63;;;1.30;;
24147;SDS011;12309;51.450;-2.624;2024-02-26T09:40:28;4.30;;;1.43;;
24147;SDS011;12309;51.450;-2.624;2024-02-26T09:42:58;6.77;;;1.30;;
24147;SDS011;12309;51.450;-2.624;2024-02-26T09:45:26;3.70;;;1.50;;
24147;SDS011;12309;51.450;-2.624;2024-02-26T09:47:54;5.37;;;1.40;;
24147;SDS011;12309;51.450;-2.624;2024-02-26T09:50:20;1.73;;;1.20;;
24147;SDS011;12309;51.450;-2.624;2024-02-26T09:52:48;4.60;;;1.30;;
24147;SDS011;12309;51.450;-2.624;2024-02-26T09:55:14;4.47;;;1.30;;
24147;SDS011;12309;51.450;-2.624;2024-02-26T09:57:41;2.30;;;1.10;;
24147;SDS011;12309;51.450;-2.624;2024-02-26T10:00:14;5.77;;;1.00;;
24147;SDS011;12309;51.450;-2.624;2024-02-26T10:02:44;3.87;;;1.00;;
24147;SDS011;12309;51.450;-2.624;2024-02-26T10:05:12;4.60;;;1.10;;
24147;SDS011;12309;51.450;-2.624;2024-02-26T10:07:41;3.17;;;1.03;;
24147;SDS011;12309;51.450;-2.624;2024-02-26T10:10:09;5.27;;;1.10;;
24147;SDS011;12309;51.450;-2.624;2024-02-26T10:12:35;5.93;;;1.00;;
24147;SDS011;12309;51.450;-2.624;2024-02-26T10:15:01;3.70;;;1.10;;
24147;SDS011;12309;51.450;-2.624;2024-02-26T10:17:27;5.07;;;1.00;;
24147;SDS011;12309;51.450;-2.624;2024-02-26T10:19:53;3.60;;;1.17;;
24147;SDS011;12309;51.450;-2.624;2024-02-26T10:22:21;4.20;;;1.23;;
24147;SDS011;12309;51.450;-2.624;2024-02-26T10:24:47;3.93;;;1.17;;
24147;SDS011;12309;51.450;-2.624;2024-02-26T10:27:14;5.63;;;0.93;;
24147;SDS011;12309;51.450;-2.624;2024-02-26T10:29:40;5.47;;;0.90;;
24147;SDS011;12309;51.450;-2.624;2024-02-26T10:32:08;3.27;;;1.00;;
24147;SDS011;12309;51.450;-2.624;2024-02-26T10:34:34;4.00;;;1.17;;
24147;SDS011;12309;51.450;-2.624;2024-02-26T10:37:03;4.07;;;1.20;;
24147;SDS011;12309;51.450;-2.624;2024-02-26T10:39:29;6.07;;;1.27;;
24147;SDS011;12309;51.450;-2.624;2024-02-26T10:41:54;7.30;;;1.20;;
24147;SDS011;12309;51.450;-2.624;2024-02-26T10:44:20;4.03;;;1.13;;
24147;SDS011;12309;51.450;-2.624;2024-02-26T10:46:47;3.27;;;1.00;;
24147;SDS011;12309;51.450;-2.624;2024-02-26T10:49:16;3.17;;;0.93;;
24147;SDS011;12309;51.450;-2.624;2024-02-26T10:51:47;5.33;;;1.30;;
24147;SDS011;12309;51.450;-2.624;2024-02-26T10:54:19;2.87;;;1.00;;
24147;SDS011;12309;51.450;-2.624;2024-02-26T10:56:45;2.10;;;0.70;;
24147;SDS011;12309;51.450;-2.624;2024-02-26T10:59:12;6.50;;;0.90;;
24147;SDS011;12309;51.450;-2.624;2024-02-26T11:01:38;3.07;;;0.90;;
24147;SDS011;12309;51.450;-2.624;2024-02-26T11:04:06;2.53;;;0.80;;
24147;SDS011;12309;51.450;-2.624;2024-02-26T11:06:35;4.30;;;1.10;;
24147;SDS011;12309;51.450;-2.624;2024-02-26T11:09:01;7.93;;;1.07;;
24147;SDS011;12309;51.450;-2.624;2024-02-26T11:11:29;3.07;;;0.90;;
24147;SDS011;12309;51.450;-2.624;2024-02-26T11:13:56;5.33;;;1.10;;
24147;SDS011;12309;51.450;-2.624;2024-02-26T11:16:23;3.47;;;1.10;;
24147;SDS011;12309;51.450;-2.624;2024-02-26T11:18:52;6.83;;;0.90;;
24147;SDS011;12309;51.450;-2.624;2024-02-26T11:21:20;3.27;;;0.90;;
24147;SDS011;12309;51.450;-2.624;2024-02-26T11:23:56;2.07;;;1.13;;
24147;SDS011;12309;51.450;-2.624;2024-02-26T11:26:22;3.67;;;1.07;;
24147;SDS011;12309;51.450;-2.624;2024-02-26T11:28:50;5.93;;;1.23;;
24147;SDS011;12309;51.450;-2.624;2024-02-26T11:31:17;5.13;;;1.13;;
24147;SDS011;12309;51.450;-2.624;2024-02-26T11:33:50;3.50;;;1.10;;
24147;SDS011;12309;51.450;-2.624;2024-02-26T11:36:16;4.33;;;1.53;;
24147;SDS011;12309;51.450;-2.624;2024-02-26T11:38:43;4.23;;;1.70;;
24147;SDS011;12309;51.450;-2.624;2024-02-26T11:41:09;8.27;;;1.40;;
24147;SDS011;12309;51.450;-2.624;2024-02-26T11:43:51;3.20;;;0.97;;
24147;SDS011;12309;51.450;-2.624;2024-02-26T11:46:29;4.27;;;0.97;;
24147;SDS011;12309;51.450;-2.624;2024-02-26T11:48:59;3.67;;;1.37;;
24147;SDS011;12309;51.450;-2.624;2024-02-26T11:51:26;2.23;;;1.00;;
24147;SDS011;12309;51.450;-2.624;2024-02-26T11:53:53;5.23;;;1.03;;
24147;SDS011;12309;51.450;-2.624;2024-02-26T11:59:04;5.23;;;0.97;;
24147;SDS011;12309;51.450;-2.624;2024-02-26T12:01:47;4.83;;;1.20;;
24147;SDS011;12309;51.450;-2.624;2024-02-26T12:04:18;3.60;;;1.17;;
24147;SDS011;12309;51.450;-2.624;2024-02-26T12:06:53;3.90;;;0.70;;
24147;SDS011;12309;51.450;-2.624;2024-02-26T12:09:36;2.15;;;0.93;;
24147;SDS011;12309;51.450;-2.624;2024-02-26T12:12:04;2.97;;;1.10;;
24147;SDS011;12309;51.450;-2.624;2024-02-26T12:14:50;9.50;;;1.27;;
24147;SDS011;12309;51.450;-2.624;2024-02-26T12:17:23;4.18;;;1.00;;
24147;SDS011;12309;51.450;-2.624;2024-02-26T12:19:50;2.22;;;1.02;;
24147;SDS011;12309;51.450;-2.624;2024-02-26T12:22:18;5.25;;;1.00;;
24147;SDS011;12309;51.450;-2.624;2024-02-26T12:24:44;4.25;;;1.02;;
24147;SDS011;12309;51.450;-2.624;2024-02-26T12:27:10;3.33;;;0.93;;
24147;SDS011;12309;51.450;-2.624;2024-02-26T12:29:36;6.55;;;1.58;;
24147;SDS011;12309;51.450;-2.624;2024-02-26T12:32:03;4.22;;;1.02;;
24147;SDS011;12309;51.450;-2.624;2024-02-26T12:34:30;5.97;;;1.10;;
24147;SDS011;12309;51.450;-2.624;2024-02-26T12:36:56;3.28;;;0.95;;
24147;SDS011;12309;51.450;-2.624;2024-02-26T12:39:22;4.15;;;1.33;;
24147;SDS011;12309;51.450;-2.624;2024-02-26T12:41:48;4.13;;;0.90;;
24147;SDS011;12309;51.450;-2.624;2024-02-26T12:44:18;3.60;;;1.02;;
24147;SDS011;12309;51.450;-2.624;2024-02-26T12:46:49;5.68;;;1.10;;
24147;SDS011;12309;51.450;-2.624;2024-02-26T12:49:15;4.82;;;1.13;;
24147;SDS011;12309;51.450;-2.624;2024-02-26T12:51:43;3.72;;;1.10;;
24147;SDS011;12309;51.450;-2.624;2024-02-26T12:54:09;2.47;;;0.98;;
24147;SDS011;12309;51.450;-2.624;2024-02-26T12:56:35;3.10;;;0.80;;
24147;SDS011;12309;51.450;-2.624;2024-02-26T12:59:01;3.28;;;1.05;;
24147;SDS011;12309;51.450;-2.624;2024-02-26T13:01:28;1.65;;;0.80;;
24147;SDS011;12309;51.450;-2.624;2024-02-26T13:03:56;1.77;;;0.88;;
24147;SDS011;12309;51.450;-2.624;2024-02-26T13:06:23;1.75;;;0.90;;
24147;SDS011;12309;51.450;-2.624;2024-02-26T13:08:49;4.90;;;0.80;;
24147;SDS011;12309;51.450;-2.624;2024-02-26T13:11:15;5.88;;;1.13;;
24147;SDS011;12309;51.450;-2.624;2024-02-26T13:13:41;7.47;;;1.20;;
24147;SDS011;12309;51.450;-2.624;2024-02-26T13:16:10;7.95;;;1.20;;
24147;SDS011;12309;51.450;-2.624;2024-02-26T13:18:39;3.67;;;0.77;;
24147;SDS011;12309;51.450;-2.624;2024-02-26T13:21:12;2.60;;;1.05;;
24147;SDS011;12309;51.450;-2.624;2024-02-26T13:23:40;5.13;;;0.93;;
24147;SDS011;12309;51.450;-2.624;2024-02-26T13:26:06;2.92;;;1.00;;
24147;SDS011;12309;51.450;-2.624;2024-02-26T13:28:33;2.45;;;0.85;;
24147;SDS011;12309;51.450;-2.624;2024-02-26T13:30:59;1.98;;;0.90;;
24147;SDS011;12309;51.450;-2.624;2024-02-26T13:33:29;4.25;;;1.10;;
24147;SDS011;12309;51.450;-2.624;2024-02-26T13:35:55;4.45;;;1.10;;
24147;SDS011;12309;51.450;-2.624;2024-02-26T13:38:22;4.70;;;1.00;;
24147;SDS011;12309;51.450;-2.624;2024-02-26T13:40:48;3.65;;;0.80;;
24147;SDS011;12309;51.450;-2.624;2024-02-26T13:43:14;1.75;;;0.65;;
24147;SDS011;12309;51.450;-2.624;2024-02-26T13:45:40;3.25;;;0.80;;
24147;SDS011;12309;51.450;-2.624;2024-02-26T13:48:06;3.00;;;0.65;;
24147;SDS011;12309;51.450;-2.624;2024-02-26T13:50:35;4.78;;;1.10;;
24147;SDS011;12309;51.450;-2.624;2024-02-26T13:53:01;6.13;;;1.15;;
24147;SDS011;12309;51.450;-2.624;2024-02-26T13:55:27;2.17;;;0.82;;
24147;SDS011;12309;51.450;-2.624;2024-02-26T13:57:54;6.90;;;1.27;;
24147;SDS011;12309;51.450;-2.624;2024-02-26T14:00:20;3.78;;;0.90;;
24147;SDS011;12309;51.450;-2.624;2024-02-26T14:02:46;5.18;;;0.90;;
24147;SDS011;12309;51.450;-2.624;2024-02-26T14:05:12;5.05;;;0.90;;
24147;SDS011;12309;51.450;-2.624;2024-02-26T14:07:38;1.25;;;0.60;;
24147;SDS011;12309;51.450;-2.624;2024-02-26T14:10:04;2.58;;;0.93;;
24147;SDS011;12309;51.450;-2.624;2024-02-26T14:12:31;1.95;;;0.80;;
24147;SDS011;12309;51.450;-2.624;2024-02-26T14:14:56;3.45;;;0.70;;
24147;SDS011;12309;51.450;-2.624;2024-02-26T14:17:25;2.38;;;0.82;;
24147;SDS011;12309;51.450;-2.624;2024-02-26T14:19:51;8.18;;;0.90;;
24147;SDS011;12309;51.450;-2.624;2024-02-26T14:22:17;3.72;;;1.05;;
24147;SDS011;12309;51.450;-2.624;2024-02-26T14:24:43;3.33;;;0.98;;
24147;SDS011;12309;51.450;-2.624;2024-02-26T14:27:09;2.00;;;0.60;;
24147;SDS011;12309;51.450;-2.624;2024-02-26T14:29:39;3.73;;;0.80;;
24147;SDS011;12309;51.450;-2.624;2024-02-26T14:32:06;4.90;;;0.80;;
24147;SDS011;12309;51.450;-2.624;2024-02-26T14:34:32;2.30;;;0.70;;
24147;SDS011;12309;51.450;-2.624;2024-02-26T14:36:58;2.53;;;0.85;;